Appleby-in-Westmorland, United Kingdom
Current Conditions -  °F | °C
As of 5:50 PM on Thursday 20 Nov 2014 (Local Time) from EGNC Reporting Station
Light Rain Light Rain  
Wind Chill: 44°   Ceiling: 4200
Heat Index: 46°   Visibility: 5mi
Dew Point: 46°   Wind: 5mph
Humidity: 100%   Direction: 60°ENE
Pressure: 30.27"   Gusts: NA
Location:  54.58°N, 2.5°W
Report Text: EGNC 201750Z 06004KT 8000 -RA SCT026 BKN042 08/08 Q1025
Loading
Personal Weather Stations






























Interactive Weather Map New forecast layout! Learn more

10-Day Weather Forecast

Advertisements
Track Severe Weather on mobile